Lakeview, Illinois
Current Conditions -  °F | °C
As of 2:51 PM on Tuesday 25 Nov 2014 (Local Time) from KORD Reporting Station
Scattered Clouds Scattered Clouds  
Wind Chill: 14°   Ceiling: Unl
Heat Index: 25°   Visibility: 10mi
Dew Point: 16°   Wind: 12mph
Humidity: 69%   Direction: 250°WSW
Pressure: 30.13"   Gusts: NA
Location:  41.9541°N, 87.6605°W
Report Text: KORD 252051Z 25010KT 10SM SCT021 M04/M09 A3013 RMK AO2 SLP213 T10391089 53019
Loading
Personal Weather Stations






























Interactive Weather Map New forecast layout! Learn more

10-Day Weather Forecast

Advertisements
Track Severe Weather on mobile